createdAt,value
2018-01-12T00:01:13.651Z,73.00
2018-01-12T00:03:41.238Z,72.90
2018-01-12T00:06:08.808Z,72.50
2018-01-12T00:08:36.393Z,72.40
2018-01-12T00:11:03.958Z,72.20
2018-01-12T00:13:31.546Z,72.20
2018-01-12T00:15:59.119Z,72.50
2018-01-12T00:18:27.480Z,72.40
2018-01-12T00:20:55.040Z,72.40
2018-01-12T00:23:22.789Z,71.80
2018-01-12T00:25:50.348Z,71.90
2018-01-12T00:28:17.927Z,72.30
2018-01-12T00:30:45.508Z,71.70
2018-01-12T00:33:13.841Z,72.70
2018-01-12T00:35:41.434Z,72.60
2018-01-12T00:38:09.761Z,72.70
2018-01-12T00:40:37.350Z,72.70
2018-01-12T00:43:04.923Z,72.80
2018-01-12T00:45:32.546Z,72.50
2018-01-12T00:48:00.103Z,72.50
2018-01-12T00:50:27.694Z,72.40
2018-01-12T00:52:55.272Z,72.80
2018-01-12T00:55:23.637Z,72.50
2018-01-12T00:57:51.964Z,72.50
2018-01-12T01:00:19.541Z,72.50
2018-01-12T01:02:47.110Z,72.40
2018-01-12T01:05:14.711Z,73.00
2018-01-12T01:07:43.046Z,73.00
2018-01-12T01:10:11.403Z,73.20
2018-01-12T01:12:38.974Z,73.20
2018-01-12T01:15:06.565Z,72.70
2018-01-12T01:17:34.909Z,72.70
2018-01-12T01:20:02.529Z,72.70
2018-01-12T01:22:30.091Z,72.60
2018-01-12T01:24:57.688Z,72.40
2018-01-12T01:27:26.029Z,72.30
2018-01-12T01:29:53.622Z,72.30
2018-01-12T01:32:21.193Z,72.10
2018-01-12T01:34:48.777Z,72.50
2018-01-12T01:37:16.346Z,72.10
2018-01-12T01:39:44.907Z,72.10
2018-01-12T01:42:12.494Z,72.00
2018-01-12T01:44:40.825Z,72.20
2018-01-12T01:47:08.419Z,72.20
2018-01-12T01:49:36.744Z,72.60
2018-01-12T01:52:04.330Z,72.60
2018-01-12T01:54:31.895Z,72.10
2018-01-12T01:57:00.343Z,71.90
2018-01-12T01:59:27.904Z,71.90
2018-01-12T02:01:55.489Z,72.10
2018-01-12T02:04:23.061Z,72.60
2018-01-12T02:06:50.645Z,72.20
2018-01-12T02:09:18.217Z,73.00
2018-01-12T02:11:45.806Z,72.00
2018-01-12T02:14:13.371Z,73.00
2018-01-12T02:16:40.964Z,72.70
2018-01-12T02:19:08.532Z,73.40
2018-01-12T02:21:36.124Z,72.60
2018-01-12T02:24:03.700Z,72.00
2018-01-12T02:26:32.055Z,71.90
2018-01-12T02:28:59.626Z,71.90
2018-01-12T02:31:28.983Z,72.50
2018-01-12T02:33:57.317Z,72.30
2018-01-12T02:36:24.910Z,72.20
2018-01-12T02:38:52.481Z,71.80
2018-01-12T02:41:20.830Z,72.10
2018-01-12T02:43:48.395Z,71.90
2018-01-12T02:46:15.990Z,72.50
2018-01-12T02:48:43.552Z,72.30
2018-01-12T02:51:11.138Z,72.60
2018-01-12T02:53:38.710Z,72.80
2018-01-12T02:56:06.283Z,72.30
2018-01-12T02:58:33.875Z,72.10
2018-01-12T03:01:01.449Z,72.10
2018-01-12T03:03:29.853Z,71.90
2018-01-12T03:05:57.413Z,72.20
2018-01-12T03:08:24.998Z,72.80
2018-01-12T03:10:52.557Z,72.10
2018-01-12T03:13:20.150Z,72.90
2018-01-12T03:15:47.720Z,72.30
2018-01-12T03:18:15.313Z,72.50
2018-01-12T03:20:42.872Z,72.30
2018-01-12T03:23:11.230Z,72.20
2018-01-12T03:25:38.797Z,72.20
2018-01-12T03:28:07.150Z,72.40
2018-01-12T03:30:34.711Z,73.10
2018-01-12T03:33:03.009Z,72.00
2018-01-12T03:35:30.569Z,72.30
2018-01-12T03:37:58.163Z,72.10
2018-01-12T03:40:25.752Z,72.20
2018-01-12T03:42:53.333Z,72.50
2018-01-12T03:45:20.896Z,72.90
2018-01-12T03:47:48.486Z,72.70
2018-01-12T03:50:16.058Z,72.10
2018-01-12T03:52:43.642Z,72.80
2018-01-12T03:55:11.969Z,72.90
2018-01-12T03:57:39.552Z,72.80
2018-01-12T04:00:07.121Z,72.30
2018-01-12T04:02:34.709Z,71.90
2018-01-12T04:05:02.277Z,72.60
2018-01-12T04:07:29.869Z,72.50
2018-01-12T04:09:57.428Z,73.10
2018-01-12T04:12:25.018Z,72.80
2018-01-12T04:14:52.578Z,72.40
2018-01-12T04:17:20.909Z,72.70
2018-01-12T04:19:48.508Z,72.70
2018-01-12T04:22:16.076Z,72.70
2018-01-12T04:24:43.669Z,73.60
2018-01-12T04:27:11.230Z,73.40
2018-01-12T04:29:38.825Z,73.20
2018-01-12T04:32:06.390Z,73.20
2018-01-12T04:34:33.978Z,74.40
2018-01-12T04:37:02.331Z,74.40
2018-01-12T04:39:29.917Z,74.40
2018-01-12T04:41:58.244Z,73.50
2018-01-12T04:44:25.842Z,73.40
2018-01-12T04:46:54.177Z,73.10
2018-01-12T04:49:21.820Z,73.10
2018-01-12T04:51:49.390Z,72.70
2018-01-12T04:54:16.988Z,72.90
2018-01-12T04:56:44.563Z,73.20
2018-01-12T04:59:12.929Z,73.00
2018-01-12T05:01:41.262Z,72.90
2018-01-12T05:04:08.863Z,72.70
2018-01-12T05:06:36.445Z,72.50
2018-01-12T05:09:04.046Z,72.20
2018-01-12T05:11:32.040Z,72.20
2018-01-12T05:13:59.646Z,71.80
2018-01-12T05:16:27.214Z,73.00
2018-01-12T05:18:54.806Z,72.40
2018-01-12T05:21:22.426Z,73.00
2018-01-12T05:23:50.014Z,73.20
2018-01-12T05:26:17.579Z,73.00
2018-01-12T05:28:45.524Z,72.70
2018-01-12T05:31:13.095Z,72.90
2018-01-12T05:33:40.692Z,74.10
2018-01-12T05:36:09.042Z,74.60
2018-01-12T05:38:36.613Z,74.40
2018-01-12T05:41:04.202Z,73.50
2018-01-12T05:43:32.548Z,73.00
2018-01-12T05:46:00.147Z,72.90
2018-01-12T05:48:27.751Z,72.70
2018-01-12T05:50:55.341Z,73.20
2018-01-12T05:53:23.668Z,72.60
2018-01-12T05:55:51.258Z,72.60
2018-01-12T05:58:18.817Z,72.50
2018-01-12T06:01:10.029Z,72.70
2018-01-12T06:03:49.340Z,72.40
2018-01-12T06:06:20.294Z,73.00
2018-01-12T06:08:48.300Z,72.50
2018-01-12T06:11:15.945Z,73.10
2018-01-12T06:13:43.517Z,73.60
2018-01-12T06:16:11.153Z,73.40
2018-01-12T06:18:38.720Z,73.60
2018-01-12T06:21:06.309Z,73.30
2018-01-12T06:23:33.873Z,73.70
2018-01-12T06:26:01.462Z,72.90
2018-01-12T06:28:29.033Z,73.20
2018-01-12T06:30:56.671Z,73.50
2018-01-12T06:33:24.238Z,73.90
2018-01-12T06:35:51.837Z,73.50
2018-01-12T06:38:19.404Z,73.20
2018-01-12T06:40:47.764Z,74.20
2018-01-12T06:43:15.329Z,73.50
2018-01-12T06:45:42.913Z,73.10
2018-01-12T06:48:10.477Z,72.80
2018-01-12T06:50:38.056Z,72.90
2018-01-12T06:53:05.620Z,72.60
2018-01-12T06:55:33.204Z,72.50
2018-01-12T06:58:00.799Z,73.20
2018-01-12T07:00:28.368Z,73.20
2018-01-12T07:02:56.731Z,73.40
2018-01-12T07:05:25.061Z,73.00
2018-01-12T07:07:52.653Z,73.00
2018-01-12T07:10:20.221Z,73.20
2018-01-12T07:12:47.859Z,72.90
2018-01-12T07:15:15.430Z,72.90
2018-01-12T07:17:43.013Z,73.20
2018-01-12T07:20:33.739Z,72.90
2018-01-12T07:23:13.083Z,72.90
2018-01-12T07:25:40.655Z,73.40
2018-01-12T07:28:08.278Z,73.00
2018-01-12T07:30:35.834Z,73.00
2018-01-12T07:33:03.431Z,73.40
2018-01-12T07:35:30.989Z,73.40
2018-01-12T07:37:58.569Z,73.60
2018-01-12T07:40:26.128Z,72.90
2018-01-12T07:42:53.716Z,72.80
2018-01-12T07:45:21.284Z,73.10
2018-01-12T07:47:49.648Z,73.20
2018-01-12T07:50:17.988Z,72.90
2018-01-12T07:52:51.294Z,72.80
2018-01-12T07:55:18.858Z,73.00
2018-01-12T07:57:46.483Z,73.40
2018-01-12T08:00:14.054Z,73.50
2018-01-12T08:02:47.361Z,72.90
2018-01-12T08:05:14.932Z,73.70
2018-01-12T08:07:42.519Z,73.90
2018-01-12T08:10:10.854Z,73.50
2018-01-12T08:12:38.445Z,73.50
2018-01-12T08:15:06.013Z,74.40
2018-01-12T08:17:33.604Z,74.40
2018-01-12T08:20:01.173Z,73.50
2018-01-12T08:22:28.761Z,74.10
2018-01-12T08:24:56.469Z,74.90
2018-01-12T08:27:24.045Z,75.00
2018-01-12T08:29:51.613Z,73.80
2018-01-12T08:32:19.517Z,74.20
2018-01-12T08:34:48.867Z,75.60
2018-01-12T08:37:16.428Z,75.50
2018-01-12T08:39:44.016Z,75.70
2018-01-12T08:42:11.576Z,77.00
2018-01-12T08:44:39.596Z,76.40
2018-01-12T08:47:07.152Z,76.00
2018-01-12T08:49:34.735Z,74.90
2018-01-12T08:52:02.295Z,73.60
2018-01-12T08:54:29.892Z,73.50
2018-01-12T08:56:57.465Z,72.20
2018-01-12T08:59:25.822Z,70.20
2018-01-12T09:01:53.384Z,70.10
2018-01-12T09:04:20.978Z,70.50
2018-01-12T09:06:49.308Z,68.60
2018-01-12T09:09:17.000Z,68.60
2018-01-12T09:11:44.561Z,66.00
2018-01-12T09:14:24.478Z,67.00
2018-01-12T09:16:52.041Z,68.50
2018-01-12T09:19:27.396Z,67.90
2018-01-12T09:21:56.753Z,68.00
2018-01-12T09:24:24.339Z,67.00
2018-01-12T09:26:51.893Z,67.10
2018-01-12T09:29:19.481Z,67.30
2018-01-12T09:31:51.013Z,67.40
2018-01-12T09:34:30.301Z,68.80
2018-01-12T09:36:58.755Z,68.00
2018-01-12T09:39:38.056Z,67.60
2018-01-12T09:42:05.621Z,68.20
2018-01-12T09:44:33.204Z,66.40
2018-01-12T09:47:13.297Z,64.50
2018-01-12T09:49:49.593Z,64.60
2018-01-12T09:52:17.165Z,62.70
2018-01-12T09:54:44.753Z,63.10
2018-01-12T09:57:12.316Z,63.70
2018-01-12T09:59:43.701Z,63.90
2018-01-12T10:02:11.272Z,65.70
2018-01-12T10:04:38.868Z,63.80
2018-01-12T10:07:18.695Z,62.00
2018-01-12T10:09:48.210Z,61.90
2018-01-12T10:12:15.787Z,63.00
2018-01-12T10:14:44.144Z,63.90
2018-01-12T10:17:12.472Z,63.20
2018-01-12T10:20:01.769Z,63.20
2018-01-12T10:22:29.340Z,62.90
2018-01-12T10:24:56.939Z,63.10
2018-01-12T10:27:24.513Z,64.20
2018-01-12T10:29:56.961Z,62.00
2018-01-12T10:32:26.467Z,61.40
2018-01-12T10:35:06.785Z,60.40
2018-01-12T10:37:34.402Z,61.30
2018-01-12T10:40:01.993Z,60.30
2018-01-12T10:42:29.574Z,61.20
2018-01-12T10:44:57.165Z,59.40
2018-01-12T10:47:26.521Z,60.40
2018-01-12T10:50:17.747Z,58.90
2018-01-12T10:52:48.989Z,60.00
2018-01-12T10:55:16.591Z,59.70
2018-01-12T10:57:44.166Z,59.60
2018-01-12T11:00:23.636Z,59.50
2018-01-12T11:02:51.213Z,60.10
2018-01-12T11:05:19.828Z,59.70
2018-01-12T11:07:47.421Z,59.60
2018-01-12T11:10:15.013Z,59.30
2018-01-12T11:12:42.590Z,61.80
2018-01-12T11:15:10.934Z,61.20
2018-01-12T11:17:38.527Z,61.00
2018-01-12T11:20:06.862Z,56.50
2018-01-12T11:22:34.459Z,56.50
2018-01-12T11:25:02.803Z,59.50
2018-01-12T11:27:30.404Z,59.40
2018-01-12T11:29:57.978Z,60.40
2018-01-12T11:32:25.573Z,58.90
2018-01-12T11:34:53.152Z,58.20
2018-01-12T11:37:20.758Z,58.90
2018-01-12T11:39:48.329Z,59.70
2018-01-12T11:42:15.920Z,59.10
2018-01-12T11:44:43.498Z,58.80
2018-01-12T11:47:11.857Z,56.90
2018-01-12T11:49:39.435Z,56.80
2018-01-12T11:52:07.797Z,60.00
2018-01-12T11:54:35.378Z,59.90
2018-01-12T11:57:03.741Z,57.60
2018-01-12T11:59:31.361Z,57.60
2018-01-12T12:01:58.959Z,58.10
2018-01-12T12:04:26.546Z,60.30
2018-01-12T12:06:55.144Z,57.80
2018-01-12T12:09:22.723Z,57.80
2018-01-12T12:11:50.317Z,58.40
2018-01-12T12:14:17.895Z,59.60
2018-01-12T12:16:46.258Z,59.10
2018-01-12T12:19:13.831Z,59.10
2018-01-12T12:21:41.462Z,59.70
2018-01-12T12:24:09.040Z,59.40
2018-01-12T12:26:36.637Z,60.10
2018-01-12T12:29:04.202Z,59.70
2018-01-12T12:31:31.795Z,59.10
2018-01-12T12:33:59.365Z,60.20
2018-01-12T12:36:26.961Z,59.50
2018-01-12T12:38:54.647Z,60.50
2018-01-12T12:41:22.219Z,60.50
2018-01-12T12:43:49.830Z,61.30
2018-01-12T12:46:18.181Z,61.10
2018-01-12T12:48:45.769Z,61.20
2018-01-12T12:51:13.332Z,60.50
2018-01-12T12:53:41.700Z,60.60
2018-01-12T12:56:09.270Z,60.60
2018-01-12T12:58:37.640Z,61.20
2018-01-12T13:01:06.017Z,61.20
2018-01-12T13:03:34.385Z,61.00
2018-01-12T13:06:02.723Z,61.20
2018-01-12T13:08:30.316Z,61.30
2018-01-12T13:10:57.885Z,61.10
2018-01-12T13:13:25.491Z,61.00
2018-01-12T13:15:53.064Z,61.30
2018-01-12T13:18:20.660Z,61.80
2018-01-12T13:20:48.997Z,61.90
2018-01-12T13:23:16.606Z,61.90
2018-01-12T13:25:44.176Z,61.40
2018-01-12T13:28:11.767Z,61.20
2018-01-12T13:30:39.342Z,61.20
2018-01-12T13:33:07.713Z,63.20
2018-01-12T13:35:35.281Z,64.00
2018-01-12T13:38:02.873Z,63.10
2018-01-12T13:40:30.442Z,63.40
2018-01-12T13:42:58.801Z,63.80
2018-01-12T13:45:26.371Z,63.80
2018-01-12T13:47:54.734Z,63.20
2018-01-12T13:50:22.305Z,63.10
2018-01-12T13:52:50.636Z,63.60
2018-01-12T13:55:18.384Z,62.90
2018-01-12T13:57:45.948Z,62.10
2018-01-12T14:00:13.541Z,61.80
2018-01-12T14:02:41.117Z,62.20
2018-01-12T14:05:09.472Z,63.00
2018-01-12T14:07:37.046Z,62.90
2018-01-12T14:10:04.647Z,63.10
2018-01-12T14:12:32.217Z,63.40
2018-01-12T14:15:02.614Z,63.70
2018-01-12T14:17:30.181Z,63.80
2018-01-12T14:19:57.764Z,64.00
2018-01-12T14:22:25.329Z,64.00
2018-01-12T14:24:52.921Z,63.80
2018-01-12T14:27:20.485Z,64.20
2018-01-12T14:29:48.073Z,64.20
2018-01-12T14:32:15.633Z,65.20
2018-01-12T14:34:43.221Z,65.00
2018-01-12T14:37:10.786Z,63.70
2018-01-12T14:39:38.378Z,63.60
2018-01-12T14:42:05.950Z,62.80
2018-01-12T14:44:33.543Z,63.30
2018-01-12T14:47:01.116Z,62.90
2018-01-12T14:49:28.718Z,62.80
2018-01-12T14:51:56.285Z,63.60
2018-01-12T14:54:24.632Z,63.50
2018-01-12T14:56:52.206Z,63.50
2018-01-12T14:59:19.803Z,63.10
2018-01-12T15:01:47.366Z,63.20
2018-01-12T15:04:14.934Z,62.90
2018-01-12T15:06:42.525Z,63.20
2018-01-12T15:09:10.096Z,63.50
2018-01-12T15:11:37.694Z,63.80
2018-01-12T15:14:05.266Z,63.80
2018-01-12T15:16:32.864Z,63.70
2018-01-12T15:19:00.429Z,64.20
2018-01-12T15:21:28.023Z,64.30
2018-01-12T15:23:56.361Z,64.30
2018-01-12T15:26:23.948Z,64.30
2018-01-12T15:28:51.517Z,64.30
2018-01-12T15:31:19.109Z,64.00
2018-01-12T15:33:46.681Z,64.00
2018-01-12T15:36:14.269Z,64.10
2018-01-12T15:38:41.836Z,64.10
2018-01-12T15:41:09.439Z,64.00
2018-01-12T15:43:37.005Z,64.50
2018-01-12T15:46:04.600Z,64.40
2018-01-12T15:48:32.182Z,64.50
2018-01-12T15:51:00.540Z,64.20
2018-01-12T15:53:28.116Z,64.20
2018-01-12T15:55:56.848Z,64.60
2018-01-12T15:58:25.128Z,64.40
2018-01-12T16:00:53.903Z,64.20
2018-01-12T16:03:24.174Z,64.10
2018-01-12T16:05:52.807Z,64.30
2018-01-12T16:08:22.170Z,64.50
2018-01-12T16:10:50.142Z,64.50
2018-01-12T16:13:20.382Z,64.40
2018-01-12T16:15:49.537Z,64.80
2018-01-12T16:18:17.537Z,64.90
2018-01-12T16:20:45.479Z,64.90
2018-01-12T16:23:13.171Z,64.50
2018-01-12T16:25:40.782Z,64.80
2018-01-12T16:28:08.933Z,64.60
2018-01-12T16:30:36.876Z,64.70
2018-01-12T16:33:04.630Z,65.20
2018-01-12T16:35:32.967Z,65.00
2018-01-12T16:38:00.827Z,65.10
2018-01-12T16:40:29.209Z,65.70
2018-01-12T16:42:56.800Z,65.70
2018-01-12T16:45:25.408Z,65.70
2018-01-12T16:47:53.862Z,66.10
2018-01-12T16:50:22.112Z,66.10
2018-01-12T16:52:50.029Z,66.40
2018-01-12T16:55:20.702Z,66.10
2018-01-12T16:57:49.197Z,66.50
2018-01-12T17:00:16.890Z,66.20
2018-01-12T17:02:46.088Z,65.70
2018-01-12T17:05:14.456Z,65.40
2018-01-12T17:07:42.049Z,65.40
2018-01-12T17:10:09.623Z,66.70
2018-01-12T17:12:37.218Z,66.60
2018-01-12T17:15:04.840Z,65.90
2018-01-12T17:17:33.335Z,67.00
2018-01-12T17:20:00.910Z,66.40
2018-01-12T17:22:28.534Z,66.30
2018-01-12T17:24:56.092Z,66.10
2018-01-12T17:27:23.677Z,66.00
2018-01-12T17:29:51.240Z,66.80
2018-01-12T17:32:18.833Z,66.30
2018-01-12T17:34:47.131Z,66.70
2018-01-12T17:37:14.716Z,67.30
2018-01-12T17:39:42.294Z,67.20
2018-01-12T17:42:09.885Z,66.50
2018-01-12T17:44:38.464Z,65.70
2018-01-12T17:47:06.809Z,66.60
2018-01-12T17:49:34.411Z,66.50
2018-01-12T17:52:02.515Z,66.50
2018-01-12T17:54:30.100Z,66.40
2018-01-12T17:56:57.666Z,66.00
2018-01-12T17:59:25.248Z,66.80
2018-01-12T18:01:52.821Z,66.80
2018-01-12T18:04:20.409Z,67.60
2018-01-12T18:06:47.977Z,68.80
2018-01-12T18:09:15.573Z,67.80
2018-01-12T18:11:43.141Z,67.50
2018-01-12T18:14:10.734Z,67.10
2018-01-12T18:16:38.299Z,68.00
2018-01-12T18:19:06.798Z,67.30
2018-01-12T18:21:34.364Z,67.40
2018-01-12T18:24:01.961Z,67.10
2018-01-12T18:26:30.296Z,66.80
2018-01-12T18:28:57.877Z,66.70
2018-01-12T18:31:25.441Z,66.80
2018-01-12T18:33:53.033Z,66.40
2018-01-12T18:36:20.606Z,67.90
2018-01-12T18:38:49.884Z,66.80
2018-01-12T18:41:17.921Z,68.00
2018-01-12T18:43:45.865Z,69.20
2018-01-12T18:46:13.441Z,69.70
2018-01-12T18:48:41.034Z,67.60
2018-01-12T18:51:09.451Z,68.40
2018-01-12T18:53:37.040Z,68.00
2018-01-12T18:56:04.611Z,67.80
2018-01-12T18:58:32.333Z,68.00
2018-01-12T19:00:59.898Z,68.10
2018-01-12T19:03:28.565Z,68.00
2018-01-12T19:05:56.713Z,67.50
2018-01-12T19:08:25.799Z,66.80
2018-01-12T19:10:54.154Z,68.20
2018-01-12T19:13:21.725Z,68.10
2018-01-12T19:15:50.099Z,68.70
2018-01-12T19:18:18.441Z,67.20
2018-01-12T19:20:46.040Z,67.20
2018-01-12T19:23:14.371Z,67.50
2018-01-12T19:25:41.965Z,67.60
2018-01-12T19:28:09.540Z,66.70
2018-01-12T19:30:37.901Z,67.70
2018-01-12T19:33:05.471Z,67.60
2018-01-12T19:35:33.062Z,67.70
2018-01-12T19:38:00.626Z,66.90
2018-01-12T19:40:28.349Z,68.70
2018-01-12T19:42:56.833Z,66.80
2018-01-12T19:45:24.467Z,66.80
2018-01-12T19:47:52.037Z,67.10
2018-01-12T19:50:19.684Z,67.30
2018-01-12T19:52:48.246Z,67.00
2018-01-12T19:55:15.837Z,66.70
2018-01-12T19:57:43.448Z,67.60
2018-01-12T20:00:11.041Z,66.90
2018-01-12T20:02:38.613Z,67.20
2018-01-12T20:05:06.290Z,66.10
2018-01-12T20:07:33.848Z,66.70
2018-01-12T20:10:01.448Z,66.90
2018-01-12T20:12:29.058Z,67.20
2018-01-12T20:14:56.636Z,66.70
2018-01-12T20:17:24.967Z,67.50
2018-01-12T20:19:52.530Z,67.40
2018-01-12T20:22:20.169Z,66.70
2018-01-12T20:24:47.730Z,67.30
2018-01-12T20:27:15.889Z,67.30
2018-01-12T20:29:43.509Z,67.00
2018-01-12T20:32:11.104Z,67.70
2018-01-12T20:34:38.667Z,68.30
2018-01-12T20:37:06.384Z,68.00
2018-01-12T20:39:33.941Z,67.50
2018-01-12T20:42:01.575Z,68.60
2018-01-12T20:44:29.141Z,69.30
2018-01-12T20:46:56.734Z,68.40
2018-01-12T20:49:25.072Z,68.10
2018-01-12T20:51:52.662Z,68.10
2018-01-12T20:54:20.279Z,67.90
2018-01-12T20:56:48.617Z,67.70
2018-01-12T20:59:17.141Z,67.50
2018-01-12T21:01:45.359Z,67.70
2018-01-12T21:04:13.010Z,69.00
2018-01-12T21:06:40.597Z,67.80
2018-01-12T21:09:08.933Z,67.80
2018-01-12T21:11:36.524Z,67.70
2018-01-12T21:14:04.421Z,67.60
2018-01-12T21:16:32.026Z,67.20
2018-01-12T21:18:59.593Z,67.40
2018-01-12T21:21:27.223Z,67.20
2018-01-12T21:23:54.847Z,67.60
2018-01-12T21:26:22.441Z,68.30
2018-01-12T21:28:50.060Z,69.40
2018-01-12T21:31:17.649Z,67.50
2018-01-12T21:33:45.222Z,67.90
2018-01-12T21:36:14.259Z,67.30
2018-01-12T21:38:41.837Z,67.50
2018-01-12T21:41:09.438Z,68.60
2018-01-12T21:43:37.035Z,67.90
2018-01-12T21:46:05.369Z,67.60
2018-01-12T21:48:32.999Z,67.40
2018-01-12T21:51:00.575Z,67.40
2018-01-12T21:53:28.208Z,67.00
2018-01-12T21:55:55.824Z,67.30
2018-01-12T21:58:23.419Z,68.00
2018-01-12T22:00:51.776Z,67.60
2018-01-12T22:03:19.415Z,67.60
2018-01-12T22:05:47.032Z,67.20
2018-01-12T22:08:14.709Z,67.30
2018-01-12T22:10:42.282Z,67.40
2018-01-12T22:13:09.919Z,68.50
2018-01-12T22:15:37.482Z,68.60
2018-01-12T22:18:05.081Z,67.80
2018-01-12T22:20:32.655Z,67.60
2018-01-12T22:23:00.246Z,68.00
2018-01-12T22:25:28.589Z,69.20
2018-01-12T22:27:56.226Z,69.20
2018-01-12T22:30:23.794Z,68.20
2018-01-12T22:32:51.385Z,67.70
2018-01-12T22:35:19.755Z,68.10
2018-01-12T22:37:48.162Z,69.60
2018-01-12T22:40:15.733Z,68.90
2018-01-12T22:42:43.365Z,69.10
2018-01-12T22:45:12.651Z,67.60
2018-01-12T22:47:41.055Z,68.50
2018-01-12T22:50:08.617Z,67.90
2018-01-12T22:52:36.198Z,67.60
2018-01-12T22:55:03.784Z,67.90
2018-01-12T22:57:31.359Z,68.20
2018-01-12T22:59:58.945Z,67.40
2018-01-12T23:02:26.517Z,68.10
2018-01-12T23:04:54.106Z,67.90
2018-01-12T23:07:21.724Z,68.20
2018-01-12T23:09:49.314Z,67.60
2018-01-12T23:12:16.876Z,68.60
2018-01-12T23:14:44.472Z,67.60
2018-01-12T23:17:12.047Z,67.40
2018-01-12T23:19:40.402Z,67.00
2018-01-12T23:22:07.968Z,67.00
2018-01-12T23:24:35.557Z,67.60
2018-01-12T23:27:03.125Z,68.30
2018-01-12T23:29:30.716Z,70.20
2018-01-12T23:31:58.285Z,68.20
2018-01-12T23:34:25.876Z,67.80
2018-01-12T23:36:53.447Z,67.30
2018-01-12T23:39:21.037Z,67.10
2018-01-12T23:41:48.602Z,68.30
2018-01-12T23:44:16.189Z,68.90
2018-01-12T23:46:43.762Z,67.90
2018-01-12T23:49:11.353Z,69.30
2018-01-12T23:51:38.917Z,68.20
2018-01-12T23:54:06.522Z,69.30
2018-01-12T23:56:34.090Z,68.20
2018-01-12T23:59:01.682Z,69.00
